sensor_id;sensor_type;location;lat;lon;timestamp;pressure;altitude;pressure_sealevel;temperature;humidity
70559;BME280;58108;48.094;11.838;2024-02-23T00:01:51;93529.25;;;5.76;100.00
70559;BME280;58108;48.094;11.838;2024-02-23T00:04:17;93530.63;;;5.70;100.00
70559;BME280;58108;48.094;11.838;2024-02-23T00:06:44;93528.47;;;5.66;100.00
70559;BME280;58108;48.094;11.838;2024-02-23T00:09:10;93531.19;;;5.64;100.00
70559;BME280;58108;48.094;11.838;2024-02-23T00:11:35;93537.09;;;5.56;100.00
70559;BME280;58108;48.094;11.838;2024-02-23T00:14:05;93534.22;;;5.50;100.00
70559;BME280;58108;48.094;11.838;2024-02-23T00:16:30;93540.09;;;5.52;100.00
70559;BME280;58108;48.094;11.838;2024-02-23T00:18:56;93534.63;;;5.55;100.00
70559;BME280;58108;48.094;11.838;2024-02-23T00:21:21;93533.66;;;5.56;100.00
70559;BME280;58108;48.094;11.838;2024-02-23T00:23:47;93530.94;;;5.57;100.00
70559;BME280;58108;48.094;11.838;2024-02-23T00:26:12;93531.22;;;5.54;100.00
70559;BME280;58108;48.094;11.838;2024-02-23T00:28:38;93532.88;;;5.55;100.00
70559;BME280;58108;48.094;11.838;2024-02-23T00:31:03;93534.63;;;5.55;100.00
70559;BME280;58108;48.094;11.838;2024-02-23T00:33:29;93538.19;;;5.54;100.00
70559;BME280;58108;48.094;11.838;2024-02-23T00:35:54;93531.06;;;5.46;100.00
70559;BME280;58108;48.094;11.838;2024-02-23T00:38:20;93549.00;;;5.49;100.00
70559;BME280;58108;48.094;11.838;2024-02-23T00:40:45;93530.53;;;5.52;100.00
70559;BME280;58108;48.094;11.838;2024-02-23T00:43:11;93544.88;;;5.46;100.00
70559;BME280;58108;48.094;11.838;2024-02-23T00:45:36;93533.81;;;5.44;100.00
70559;BME280;58108;48.094;11.838;2024-02-23T00:48:02;93537.50;;;5.42;100.00
70559;BME280;58108;48.094;11.838;2024-02-23T00:50:28;93529.72;;;5.42;100.00
70559;BME280;58108;48.094;11.838;2024-02-23T00:52:54;93530.69;;;5.41;100.00
70559;BME280;58108;48.094;11.838;2024-02-23T00:55:19;93532.31;;;5.42;100.00
70559;BME280;58108;48.094;11.838;2024-02-23T00:57:45;93541.19;;;5.39;100.00
70559;BME280;58108;48.094;11.838;2024-02-23T01:00:11;93540.09;;;5.42;100.00
70559;BME280;58108;48.094;11.838;2024-02-23T01:02:40;93543.25;;;5.26;100.00
70559;BME280;58108;48.094;11.838;2024-02-23T01:05:06;93542.56;;;5.24;100.00
70559;BME280;58108;48.094;11.838;2024-02-23T01:07:34;93546.25;;;5.21;100.00
70559;BME280;58108;48.094;11.838;2024-02-23T01:10:00;93544.09;;;5.26;100.00
70559;BME280;58108;48.094;11.838;2024-02-23T01:12:25;93546.13;;;5.23;100.00
70559;BME280;58108;48.094;11.838;2024-02-23T01:14:52;93555.66;;;5.22;100.00
70559;BME280;58108;48.094;11.838;2024-02-23T01:17:18;93559.53;;;5.28;100.00
70559;BME280;58108;48.094;11.838;2024-02-23T01:19:44;93554.34;;;5.28;100.00
70559;BME280;58108;48.094;11.838;2024-02-23T01:22:10;93561.81;;;5.21;100.00
70559;BME280;58108;48.094;11.838;2024-02-23T01:24:35;93564.00;;;5.16;100.00
70559;BME280;58108;48.094;11.838;2024-02-23T01:27:01;93562.38;;;5.25;100.00
70559;BME280;58108;48.094;11.838;2024-02-23T01:29:27;93572.75;;;5.15;100.00
70559;BME280;58108;48.094;11.838;2024-02-23T01:31:52;93568.66;;;5.22;100.00
70559;BME280;58108;48.094;11.838;2024-02-23T01:34:20;93572.06;;;5.23;100.00
70559;BME280;58108;48.094;11.838;2024-02-23T01:36:45;93566.34;;;5.19;100.00
70559;BME280;58108;48.094;11.838;2024-02-23T01:39:11;93578.91;;;5.24;100.00
70559;BME280;58108;48.094;11.838;2024-02-23T01:41:36;93584.34;;;5.11;100.00
70559;BME280;58108;48.094;11.838;2024-02-23T01:44:02;93586.25;;;5.18;100.00
70559;BME280;58108;48.094;11.838;2024-02-23T01:46:28;93583.09;;;5.05;100.00
70559;BME280;58108;48.094;11.838;2024-02-23T01:48:54;93582.41;;;5.03;100.00
70559;BME280;58108;48.094;11.838;2024-02-23T01:51:19;93592.13;;;5.01;100.00
70559;BME280;58108;48.094;11.838;2024-02-23T01:53:48;93584.59;;;4.98;100.00
70559;BME280;58108;48.094;11.838;2024-02-23T01:56:15;93589.25;;;4.94;100.00
70559;BME280;58108;48.094;11.838;2024-02-23T01:58:46;93578.88;;;5.04;100.00
70559;BME280;58108;48.094;11.838;2024-02-23T02:01:11;93581.63;;;5.02;100.00
70559;BME280;58108;48.094;11.838;2024-02-23T02:03:40;93579.00;;;4.92;100.00
70559;BME280;58108;48.094;11.838;2024-02-23T02:06:06;93578.16;;;4.82;100.00
70559;BME280;58108;48.094;11.838;2024-02-23T02:08:35;93575.31;;;4.85;100.00
70559;BME280;58108;48.094;11.838;2024-02-23T02:11:00;93578.53;;;4.77;100.00
70559;BME280;58108;48.094;11.838;2024-02-23T02:13:28;93578.03;;;4.84;100.00
70559;BME280;58108;48.094;11.838;2024-02-23T02:15:54;93579.47;;;4.67;100.00
70559;BME280;58108;48.094;11.838;2024-02-23T02:18:19;93581.13;;;4.77;100.00
70559;BME280;58108;48.094;11.838;2024-02-23T02:20:52;93578.41;;;4.79;100.00
70559;BME280;58108;48.094;11.838;2024-02-23T02:23:18;93580.75;;;4.82;100.00
70559;BME280;58108;48.094;11.838;2024-02-23T02:25:43;93582.22;;;4.75;100.00
70559;BME280;58108;48.094;11.838;2024-02-23T02:28:09;93587.44;;;4.85;100.00
70559;BME280;58108;48.094;11.838;2024-02-23T02:30:35;93595.50;;;4.82;100.00
70559;BME280;58108;48.094;11.838;2024-02-23T02:33:01;93592.47;;;4.76;100.00
70559;BME280;58108;48.094;11.838;2024-02-23T02:35:26;93607.50;;;4.83;100.00
70559;BME280;58108;48.094;11.838;2024-02-23T02:37:52;93614.88;;;4.87;100.00
70559;BME280;58108;48.094;11.838;2024-02-23T02:40:17;93609.13;;;4.84;100.00
70559;BME280;58108;48.094;11.838;2024-02-23T02:42:42;93609.66;;;4.77;100.00
70559;BME280;58108;48.094;11.838;2024-02-23T02:45:08;93606.25;;;4.77;100.00
70559;BME280;58108;48.094;11.838;2024-02-23T02:47:33;93606.16;;;4.88;100.00
70559;BME280;58108;48.094;11.838;2024-02-23T02:50:01;93604.06;;;4.82;100.00
70559;BME280;58108;48.094;11.838;2024-02-23T02:52:27;93612.69;;;4.83;100.00
70559;BME280;58108;48.094;11.838;2024-02-23T02:54:54;93621.25;;;4.73;100.00
70559;BME280;58108;48.094;11.838;2024-02-23T02:57:19;93615.97;;;4.85;100.00
70559;BME280;58108;48.094;11.838;2024-02-23T02:59:45;93620.75;;;4.79;100.00
70559;BME280;58108;48.094;11.838;2024-02-23T03:02:11;93618.97;;;4.90;100.00
70559;BME280;58108;48.094;11.838;2024-02-23T03:04:37;93622.91;;;4.74;100.00
70559;BME280;58108;48.094;11.838;2024-02-23T03:07:03;93617.22;;;4.90;100.00
70559;BME280;58108;48.094;11.838;2024-02-23T03:09:28;93612.69;;;4.83;100.00
70559;BME280;58108;48.094;11.838;2024-02-23T03:11:54;93611.19;;;4.90;100.00
70559;BME280;58108;48.094;11.838;2024-02-23T03:14:19;93618.44;;;4.86;100.00
70559;BME280;58108;48.094;11.838;2024-02-23T03:16:46;93610.38;;;4.79;100.00
70559;BME280;58108;48.094;11.838;2024-02-23T03:19:13;93619.34;;;4.75;100.00
70559;BME280;58108;48.094;11.838;2024-02-23T03:21:38;93624.81;;;4.82;100.00
70559;BME280;58108;48.094;11.838;2024-02-23T03:24:04;93612.13;;;4.79;100.00
70559;BME280;58108;48.094;11.838;2024-02-23T03:26:29;93628.75;;;4.76;100.00
70559;BME280;58108;48.094;11.838;2024-02-23T03:28:55;93622.34;;;4.71;100.00
70559;BME280;58108;48.094;11.838;2024-02-23T03:31:20;93617.69;;;4.64;100.00
70559;BME280;58108;48.094;11.838;2024-02-23T03:33:46;93611.28;;;4.78;100.00
70559;BME280;58108;48.094;11.838;2024-02-23T03:36:11;93617.84;;;4.73;100.00
70559;BME280;58108;48.094;11.838;2024-02-23T03:38:37;93620.72;;;4.70;100.00
70559;BME280;58108;48.094;11.838;2024-02-23T03:41:03;93620.59;;;4.81;100.00
70559;BME280;58108;48.094;11.838;2024-02-23T03:43:29;93628.34;;;4.71;100.00
70559;BME280;58108;48.094;11.838;2024-02-23T03:45:54;93624.63;;;4.64;100.00
70559;BME280;58108;48.094;11.838;2024-02-23T03:48:20;93635.25;;;4.61;100.00
70559;BME280;58108;48.094;11.838;2024-02-23T03:50:45;93620.63;;;4.50;100.00
70559;BME280;58108;48.094;11.838;2024-02-23T03:53:11;93621.88;;;4.56;100.00
70559;BME280;58108;48.094;11.838;2024-02-23T03:55:36;93627.06;;;4.56;100.00
70559;BME280;58108;48.094;11.838;2024-02-23T03:58:02;93634.50;;;4.39;100.00
70559;BME280;58108;48.094;11.838;2024-02-23T04:00:28;93628.09;;;4.43;100.00
70559;BME280;58108;48.094;11.838;2024-02-23T04:02:54;93633.97;;;4.45;100.00
70559;BME280;58108;48.094;11.838;2024-02-23T04:05:19;93628.00;;;4.55;100.00
70559;BME280;58108;48.094;11.838;2024-02-23T04:07:44;93639.72;;;4.49;100.00
70559;BME280;58108;48.094;11.838;2024-02-23T04:10:10;93643.22;;;4.38;100.00
70559;BME280;58108;48.094;11.838;2024-02-23T04:12:35;93630.19;;;4.49;100.00
70559;BME280;58108;48.094;11.838;2024-02-23T04:15:01;93645.94;;;4.36;100.00
70559;BME280;58108;48.094;11.838;2024-02-23T04:17:26;93660.91;;;4.54;100.00
70559;BME280;58108;48.094;11.838;2024-02-23T04:19:52;93664.69;;;4.50;100.00
70559;BME280;58108;48.094;11.838;2024-02-23T04:22:18;93670.88;;;4.37;100.00
70559;BME280;58108;48.094;11.838;2024-02-23T04:24:43;93664.22;;;4.35;100.00
70559;BME280;58108;48.094;11.838;2024-02-23T04:27:09;93663.09;;;4.28;100.00
70559;BME280;58108;48.094;11.838;2024-02-23T04:29:34;93658.31;;;4.33;100.00
70559;BME280;58108;48.094;11.838;2024-02-23T04:32:00;93655.94;;;4.20;100.00
70559;BME280;58108;48.094;11.838;2024-02-23T04:34:27;93660.78;;;4.34;100.00
70559;BME280;58108;48.094;11.838;2024-02-23T04:36:53;93661.19;;;4.30;100.00
70559;BME280;58108;48.094;11.838;2024-02-23T04:39:19;93668.44;;;4.36;100.00
70559;BME280;58108;48.094;11.838;2024-02-23T04:41:44;93657.00;;;4.17;100.00
70559;BME280;58108;48.094;11.838;2024-02-23T04:44:10;93659.88;;;4.14;100.00
70559;BME280;58108;48.094;11.838;2024-02-23T04:46:35;93665.34;;;4.21;100.00
70559;BME280;58108;48.094;11.838;2024-02-23T04:49:01;93659.88;;;4.14;100.00
70559;BME280;58108;48.094;11.838;2024-02-23T04:51:27;93660.47;;;4.06;100.00
70559;BME280;58108;48.094;11.838;2024-02-23T04:53:53;93668.13;;;4.29;100.00
70559;BME280;58108;48.094;11.838;2024-02-23T04:56:19;93681.53;;;4.13;100.00
70559;BME280;58108;48.094;11.838;2024-02-23T04:58:45;93675.91;;;4.08;100.00
70559;BME280;58108;48.094;11.838;2024-02-23T05:01:10;93671.69;;;4.07;100.00
70559;BME280;58108;48.094;11.838;2024-02-23T05:03:36;93668.75;;;4.00;100.00
70559;BME280;58108;48.094;11.838;2024-02-23T05:06:03;93664.97;;;3.83;100.00
70559;BME280;58108;48.094;11.838;2024-02-23T05:08:28;93669.31;;;4.04;100.00
70559;BME280;58108;48.094;11.838;2024-02-23T05:10:56;93662.31;;;3.94;100.00
70559;BME280;58108;48.094;11.838;2024-02-23T05:13:21;93662.63;;;3.80;100.00
70559;BME280;58108;48.094;11.838;2024-02-23T05:15:47;93665.59;;;3.75;100.00
70559;BME280;58108;48.094;11.838;2024-02-23T05:18:12;93676.47;;;3.90;100.00
70559;BME280;58108;48.094;11.838;2024-02-23T05:20:38;93682.91;;;3.75;100.00
70559;BME280;58108;48.094;11.838;2024-02-23T05:23:04;93678.88;;;3.82;100.00
70559;BME280;58108;48.094;11.838;2024-02-23T05:25:29;93689.34;;;3.80;100.00
70559;BME280;58108;48.094;11.838;2024-02-23T05:27:55;93702.56;;;3.66;100.00
70559;BME280;58108;48.094;11.838;2024-02-23T05:30:20;93704.97;;;3.46;100.00
70559;BME280;58108;48.094;11.838;2024-02-23T05:32:47;93699.63;;;3.59;100.00
70559;BME280;58108;48.094;11.838;2024-02-23T05:35:13;93691.88;;;3.59;100.00
70559;BME280;58108;48.094;11.838;2024-02-23T05:37:38;93688.84;;;3.54;100.00
70559;BME280;58108;48.094;11.838;2024-02-23T05:40:04;93681.28;;;3.62;100.00
70559;BME280;58108;48.094;11.838;2024-02-23T05:42:36;93682.63;;;3.78;100.00
70559;BME280;58108;48.094;11.838;2024-02-23T05:45:01;93686.78;;;3.69;100.00
70559;BME280;58108;48.094;11.838;2024-02-23T05:47:32;93689.94;;;3.73;100.00
70559;BME280;58108;48.094;11.838;2024-02-23T05:49:58;93685.31;;;3.55;100.00
70559;BME280;58108;48.094;11.838;2024-02-23T05:52:23;93690.03;;;3.50;100.00
70559;BME280;58108;48.094;11.838;2024-02-23T05:54:49;93683.13;;;3.39;100.00
70559;BME280;58108;48.094;11.838;2024-02-23T05:57:14;93693.09;;;3.55;100.00
70559;BME280;58108;48.094;11.838;2024-02-23T05:59:40;93697.00;;;3.49;100.00
70559;BME280;58108;48.094;11.838;2024-02-23T06:02:05;93687.69;;;3.47;100.00
70559;BME280;58108;48.094;11.838;2024-02-23T06:04:31;93684.84;;;3.50;100.00
70559;BME280;58108;48.094;11.838;2024-02-23T06:06:57;93692.09;;;3.67;100.00
70559;BME280;58108;48.094;11.838;2024-02-23T06:09:23;93683.72;;;3.75;100.00
70559;BME280;58108;48.094;11.838;2024-02-23T06:11:49;93678.25;;;3.57;100.00
70559;BME280;58108;48.094;11.838;2024-02-23T06:14:14;93679.75;;;3.71;100.00
70559;BME280;58108;48.094;11.838;2024-02-23T06:16:40;93685.25;;;3.66;100.00
70559;BME280;58108;48.094;11.838;2024-02-23T06:19:06;93696.22;;;3.26;100.00
70559;BME280;58108;48.094;11.838;2024-02-23T06:21:31;93707.78;;;3.54;100.00
70559;BME280;58108;48.094;11.838;2024-02-23T06:23:58;93711.84;;;3.36;100.00
70559;BME280;58108;48.094;11.838;2024-02-23T06:26:23;93712.63;;;3.48;100.00
70559;BME280;58108;48.094;11.838;2024-02-23T06:28:49;93720.44;;;3.69;100.00
70559;BME280;58108;48.094;11.838;2024-02-23T06:31:14;93722.34;;;3.55;100.00
70559;BME280;58108;48.094;11.838;2024-02-23T06:33:40;93725.25;;;3.74;100.00
70559;BME280;58108;48.094;11.838;2024-02-23T06:36:09;93730.47;;;3.51;100.00
70559;BME280;58108;48.094;11.838;2024-02-23T06:38:35;93732.75;;;3.44;100.00
70559;BME280;58108;48.094;11.838;2024-02-23T06:41:00;93734.03;;;3.50;100.00
70559;BME280;58108;48.094;11.838;2024-02-23T06:43:25;93731.22;;;3.53;100.00
70559;BME280;58108;48.094;11.838;2024-02-23T06:45:52;93742.28;;;3.76;100.00
70559;BME280;58108;48.094;11.838;2024-02-23T06:48:17;93741.97;;;3.69;100.00
70559;BME280;58108;48.094;11.838;2024-02-23T06:50:43;93736.69;;;3.71;100.00
70559;BME280;58108;48.094;11.838;2024-02-23T06:53:09;93731.16;;;3.64;100.00
70559;BME280;58108;48.094;11.838;2024-02-23T06:55:34;93731.28;;;3.63;100.00
70559;BME280;58108;48.094;11.838;2024-02-23T06:58:00;93722.81;;;3.61;100.00
70559;BME280;58108;48.094;11.838;2024-02-23T07:00:26;93730.94;;;3.67;100.00
70559;BME280;58108;48.094;11.838;2024-02-23T07:02:51;93724.91;;;3.78;100.00
70559;BME280;58108;48.094;11.838;2024-02-23T07:05:17;93730.94;;;3.56;100.00
70559;BME280;58108;48.094;11.838;2024-02-23T07:07:43;93731.16;;;3.64;100.00
70559;BME280;58108;48.094;11.838;2024-02-23T07:10:09;93736.44;;;3.74;100.00
70559;BME280;58108;48.094;11.838;2024-02-23T07:12:35;93739.34;;;3.81;100.00
70559;BME280;58108;48.094;11.838;2024-02-23T07:15:00;93735.25;;;3.78;100.00
70559;BME280;58108;48.094;11.838;2024-02-23T07:17:27;93736.53;;;3.73;100.00
70559;BME280;58108;48.094;11.838;2024-02-23T07:19:53;93737.88;;;3.67;100.00
70559;BME280;58108;48.094;11.838;2024-02-23T07:22:19;93743.94;;;3.77;100.00
70559;BME280;58108;48.094;11.838;2024-02-23T07:24:45;93743.63;;;3.71;100.00
70559;BME280;58108;48.094;11.838;2024-02-23T07:27:11;93759.03;;;3.72;100.00
70559;BME280;58108;48.094;11.838;2024-02-23T07:29:37;93754.09;;;3.69;100.00
70559;BME280;58108;48.094;11.838;2024-02-23T07:32:02;93756.66;;;3.69;100.00
70559;BME280;58108;48.094;11.838;2024-02-23T07:34:29;93760.47;;;3.65;100.00
70559;BME280;58108;48.094;11.838;2024-02-23T07:36:54;93753.88;;;3.61;100.00
70559;BME280;58108;48.094;11.838;2024-02-23T07:39:21;93757.97;;;3.75;100.00
70559;BME280;58108;48.094;11.838;2024-02-23T07:41:47;93769.78;;;3.56;100.00
70559;BME280;58108;48.094;11.838;2024-02-23T07:44:13;93770.56;;;3.68;100.00
70559;BME280;58108;48.094;11.838;2024-02-23T07:46:38;93774.78;;;3.69;100.00
70559;BME280;58108;48.094;11.838;2024-02-23T07:49:04;93768.19;;;3.76;100.00
70559;BME280;58108;48.094;11.838;2024-02-23T07:51:31;93762.16;;;3.87;100.00
70559;BME280;58108;48.094;11.838;2024-02-23T07:53:57;93757.41;;;3.71;100.00
70559;BME280;58108;48.094;11.838;2024-02-23T07:56:22;93759.13;;;3.82;100.00
70559;BME280;58108;48.094;11.838;2024-02-23T07:58:48;93755.59;;;3.83;100.00
70559;BME280;58108;48.094;11.838;2024-02-23T08:01:16;93756.75;;;3.90;100.00
70559;BME280;58108;48.094;11.838;2024-02-23T08:03:42;93760.81;;;3.93;100.00
70559;BME280;58108;48.094;11.838;2024-02-23T08:06:08;93751.69;;;3.89;100.00
70559;BME280;58108;48.094;11.838;2024-02-23T08:08:33;93755.44;;;3.85;100.00
70559;BME280;58108;48.094;11.838;2024-02-23T08:11:01;93744.09;;;3.76;100.00
70559;BME280;58108;48.094;11.838;2024-02-23T08:13:27;93736.44;;;3.74;100.00
70559;BME280;58108;48.094;11.838;2024-02-23T08:15:53;93744.78;;;3.78;100.00
70559;BME280;58108;48.094;11.838;2024-02-23T08:18:18;93744.00;;;3.99;100.00
70559;BME280;58108;48.094;11.838;2024-02-23T08:20:44;93733.56;;;4.10;100.00
70559;BME280;58108;48.094;11.838;2024-02-23T08:23:09;93738.84;;;4.20;100.00
70559;BME280;58108;48.094;11.838;2024-02-23T08:25:36;93753.75;;;4.28;100.00
70559;BME280;58108;48.094;11.838;2024-02-23T08:28:02;93740.25;;;4.24;100.00
70559;BME280;58108;48.094;11.838;2024-02-23T08:30:27;93738.22;;;4.28;100.00
70559;BME280;58108;48.094;11.838;2024-02-23T08:32:53;93749.25;;;4.08;100.00
70559;BME280;58108;48.094;11.838;2024-02-23T08:35:18;93742.38;;;4.19;100.00
70559;BME280;58108;48.094;11.838;2024-02-23T08:37:44;93746.88;;;4.17;100.00
70559;BME280;58108;48.094;11.838;2024-02-23T08:40:10;93739.41;;;4.23;100.00
70559;BME280;58108;48.094;11.838;2024-02-23T08:42:35;93729.16;;;4.22;100.00
70559;BME280;58108;48.094;11.838;2024-02-23T08:45:01;93725.81;;;4.10;100.00
70559;BME280;58108;48.094;11.838;2024-02-23T08:47:27;93732.31;;;4.26;100.00
70559;BME280;58108;48.094;11.838;2024-02-23T08:49:57;93734.09;;;4.25;100.00
70559;BME280;58108;48.094;11.838;2024-02-23T08:52:23;93728.47;;;4.20;100.00
70559;BME280;58108;48.094;11.838;2024-02-23T08:54:49;93725.50;;;4.24;100.00
70559;BME280;58108;48.094;11.838;2024-02-23T08:57:14;93743.63;;;4.24;100.00
70559;BME280;58108;48.094;11.838;2024-02-23T08:59:45;93761.66;;;4.26;100.00
70559;BME280;58108;48.094;11.838;2024-02-23T09:02:11;93761.19;;;4.21;100.00
70559;BME280;58108;48.094;11.838;2024-02-23T09:04:36;93758.75;;;4.19;100.00
70559;BME280;58108;48.094;11.838;2024-02-23T09:07:02;93754.25;;;4.21;100.00
70559;BME280;58108;48.094;11.838;2024-02-23T09:09:28;93767.91;;;4.23;100.00
70559;BME280;58108;48.094;11.838;2024-02-23T09:11:53;93769.72;;;4.33;100.00
70559;BME280;58108;48.094;11.838;2024-02-23T09:14:19;93774.91;;;4.33;100.00
70559;BME280;58108;48.094;11.838;2024-02-23T09:16:44;93783.03;;;4.07;100.00
70559;BME280;58108;48.094;11.838;2024-02-23T09:19:11;93789.03;;;4.07;100.00
70559;BME280;58108;48.094;11.838;2024-02-23T09:21:37;93793.91;;;4.01;100.00
70559;BME280;58108;48.094;11.838;2024-02-23T09:24:04;93794.34;;;4.06;100.00
70559;BME280;58108;48.094;11.838;2024-02-23T09:26:29;93806.34;;;4.07;100.00
70559;BME280;58108;48.094;11.838;2024-02-23T09:28:55;93801.19;;;4.07;100.00
70559;BME280;58108;48.094;11.838;2024-02-23T09:31:20;93803.06;;;4.05;100.00
70559;BME280;58108;48.094;11.838;2024-02-23T09:33:46;93802.97;;;3.95;100.00
70559;BME280;58108;48.094;11.838;2024-02-23T09:36:12;93799.91;;;4.01;100.00
70559;BME280;58108;48.094;11.838;2024-02-23T09:38:37;93815.56;;;3.88;100.00
70559;BME280;58108;48.094;11.838;2024-02-23T09:41:03;93817.16;;;3.79;100.00
70559;BME280;58108;48.094;11.838;2024-02-23T09:43:29;93816.09;;;3.82;100.00
70559;BME280;58108;48.094;11.838;2024-02-23T09:45:57;93817.25;;;3.78;100.00
70559;BME280;58108;48.094;11.838;2024-02-23T09:48:24;93814.72;;;3.55;100.00
70559;BME280;58108;48.094;11.838;2024-02-23T09:50:51;93810.09;;;3.70;100.00
70559;BME280;58108;48.094;11.838;2024-02-23T09:53:19;93824.56;;;3.73;100.00
70559;BME280;58108;48.094;11.838;2024-02-23T09:55:47;93813.88;;;3.54;100.00
70559;BME280;58108;48.094;11.838;2024-02-23T09:58:13;93808.00;;;3.64;100.00
70559;BME280;58108;48.094;11.838;2024-02-23T10:00:43;93807.53;;;3.59;100.00
70559;BME280;58108;48.094;11.838;2024-02-23T10:03:09;93807.31;;;3.50;100.00
70559;BME280;58108;48.094;11.838;2024-02-23T10:05:34;93822.59;;;3.53;100.00
70559;BME280;58108;48.094;11.838;2024-02-23T10:08:00;93826.81;;;3.54;100.00
70559;BME280;58108;48.094;11.838;2024-02-23T10:10:35;93833.91;;;3.41;100.00
70559;BME280;58108;48.094;11.838;2024-02-23T10:13:01;93845.28;;;3.27;100.00
70559;BME280;58108;48.094;11.838;2024-02-23T10:15:29;93833.75;;;3.20;100.00
70559;BME280;58108;48.094;11.838;2024-02-23T10:17:56;93835.06;;;3.14;100.00
70559;BME280;58108;48.094;11.838;2024-02-23T10:20:22;93837.19;;;3.32;100.00
70559;BME280;58108;48.094;11.838;2024-02-23T10:22:47;93835.88;;;3.26;100.00
70559;BME280;58108;48.094;11.838;2024-02-23T10:25:13;93831.53;;;3.38;100.00
70559;BME280;58108;48.094;11.838;2024-02-23T10:27:40;93829.53;;;3.53;100.00
70559;BME280;58108;48.094;11.838;2024-02-23T10:30:07;93825.06;;;3.55;100.00
70559;BME280;58108;48.094;11.838;2024-02-23T10:32:36;93822.47;;;3.55;100.00
70559;BME280;58108;48.094;11.838;2024-02-23T10:35:09;93816.03;;;3.49;100.00
70559;BME280;58108;48.094;11.838;2024-02-23T10:37:36;93828.72;;;3.52;100.00
70559;BME280;58108;48.094;11.838;2024-02-23T10:40:03;93825.56;;;3.37;100.00
70559;BME280;58108;48.094;11.838;2024-02-23T10:42:34;93825.31;;;3.52;100.00
70559;BME280;58108;48.094;11.838;2024-02-23T10:45:01;93825.50;;;3.72;100.00
70559;BME280;58108;48.094;11.838;2024-02-23T10:47:28;93810.66;;;3.74;100.00
70559;BME280;58108;48.094;11.838;2024-02-23T10:49:55;93819.63;;;3.58;100.00
70559;BME280;58108;48.094;11.838;2024-02-23T10:52:23;93821.19;;;3.49;100.00
70559;BME280;58108;48.094;11.838;2024-02-23T10:54:50;93817.28;;;3.55;100.00
70559;BME280;58108;48.094;11.838;2024-02-23T10:57:17;93817.06;;;3.35;100.00
70559;BME280;58108;48.094;11.838;2024-02-23T10:59:46;93822.13;;;3.48;100.00
70559;BME280;58108;48.094;11.838;2024-02-23T11:02:12;93818.81;;;3.46;100.00
70559;BME280;58108;48.094;11.838;2024-02-23T11:04:42;93824.13;;;3.45;100.00
70559;BME280;58108;48.094;11.838;2024-02-23T11:07:13;93830.00;;;3.47;100.00
70559;BME280;58108;48.094;11.838;2024-02-23T11:09:39;93819.41;;;3.50;100.00
70559;BME280;58108;48.094;11.838;2024-02-23T11:12:05;93822.81;;;3.39;100.00
70559;BME280;58108;48.094;11.838;2024-02-23T11:16:58;93807.19;;;3.29;100.00
70559;BME280;58108;48.094;11.838;2024-02-23T11:19:32;93804.81;;;3.49;100.00
70559;BME280;58108;48.094;11.838;2024-02-23T11:21:58;93807.44;;;3.26;100.00
70559;BME280;58108;48.094;11.838;2024-02-23T11:24:28;93805.44;;;3.41;100.00
70559;BME280;58108;48.094;11.838;2024-02-23T11:27:00;93798.59;;;3.40;100.00
70559;BME280;58108;48.094;11.838;2024-02-23T11:29:33;93788.25;;;3.40;100.00
70559;BME280;58108;48.094;11.838;2024-02-23T11:32:00;93794.81;;;3.55;100.00
70559;BME280;58108;48.094;11.838;2024-02-23T11:34:27;93797.28;;;3.68;100.00
70559;BME280;58108;48.094;11.838;2024-02-23T11:36:53;93800.72;;;3.58;100.00
70559;BME280;58108;48.094;11.838;2024-02-23T11:39:19;93793.19;;;3.43;100.00
70559;BME280;58108;48.094;11.838;2024-02-23T11:41:48;93793.91;;;3.45;100.00
70559;BME280;58108;48.094;11.838;2024-02-23T11:44:15;93798.13;;;3.58;100.00
70559;BME280;58108;48.094;11.838;2024-02-23T11:46:46;93792.47;;;3.64;100.00
70559;BME280;58108;48.094;11.838;2024-02-23T11:49:13;93799.28;;;3.65;100.00
70559;BME280;58108;48.094;11.838;2024-02-23T11:51:39;93791.88;;;3.60;100.00
70559;BME280;58108;48.094;11.838;2024-02-23T11:54:05;93809.38;;;3.68;100.00
70559;BME280;58108;48.094;11.838;2024-02-23T11:56:31;93806.91;;;3.66;100.00
70559;BME280;58108;48.094;11.838;2024-02-23T11:58:57;93805.03;;;3.68;100.00
70559;BME280;58108;48.094;11.838;2024-02-23T12:01:23;93808.00;;;3.52;100.00
70559;BME280;58108;48.094;11.838;2024-02-23T12:03:48;93807.75;;;3.55;100.00
70559;BME280;58108;48.094;11.838;2024-02-23T12:06:14;93816.34;;;3.67;100.00
70559;BME280;58108;48.094;11.838;2024-02-23T12:08:43;93804.56;;;3.63;100.00
70559;BME280;58108;48.094;11.838;2024-02-23T12:11:11;93807.78;;;3.44;97.98
70559;BME280;58108;48.094;11.838;2024-02-23T12:13:38;93806.94;;;3.55;100.00
70559;BME280;58108;48.094;11.838;2024-02-23T12:16:04;93810.94;;;3.48;98.77
70559;BME280;58108;48.094;11.838;2024-02-23T12:18:33;93801.09;;;3.30;97.42
70559;BME280;58108;48.094;11.838;2024-02-23T12:21:02;93810.50;;;3.31;99.40
70559;BME280;58108;48.094;11.838;2024-02-23T12:23:43;93809.44;;;3.34;96.86
70559;BME280;58108;48.094;11.838;2024-02-23T12:26:10;93810.63;;;3.41;97.78
70559;BME280;58108;48.094;11.838;2024-02-23T12:28:36;93811.19;;;3.33;97.18
70559;BME280;58108;48.094;11.838;2024-02-23T12:31:03;93798.84;;;3.48;99.67
70559;BME280;58108;48.094;11.838;2024-02-23T12:33:30;93793.53;;;3.50;96.88
70559;BME280;58108;48.094;11.838;2024-02-23T12:35:58;93778.41;;;3.34;96.43
70559;BME280;58108;48.094;11.838;2024-02-23T12:38:24;93780.25;;;3.43;98.44
70559;BME280;58108;48.094;11.838;2024-02-23T12:40:50;93772.34;;;3.56;95.86
70559;BME280;58108;48.094;11.838;2024-02-23T12:43:17;93772.41;;;3.33;97.54
70559;BME280;58108;48.094;11.838;2024-02-23T12:45:42;93766.72;;;3.51;97.45
70559;BME280;58108;48.094;11.838;2024-02-23T12:48:10;93777.28;;;3.59;97.24